sensor_id;sensor_type;location;lat;lon;timestamp;pressure;altitude;pressure_sealevel;temperature;humidity
3968;BME280;9221;42.646;23.380;2023-03-13T00:01:18;94744.97;;;4.50;52.30
3968;BME280;9221;42.646;23.380;2023-03-13T00:03:44;94765.03;;;4.36;52.31
3968;BME280;9221;42.646;23.380;2023-03-13T00:06:09;94721.38;;;4.38;52.18
3968;BME280;9221;42.646;23.380;2023-03-13T00:08:35;94746.31;;;4.43;52.14
3968;BME280;9221;42.646;23.380;2023-03-13T00:11:05;94713.53;;;4.38;52.27
3968;BME280;9221;42.646;23.380;2023-03-13T00:13:31;94737.59;;;4.55;51.88
3968;BME280;9221;42.646;23.380;2023-03-13T00:16:01;94743.41;;;4.34;52.44
3968;BME280;9221;42.646;23.380;2023-03-13T00:18:27;94726.59;;;4.38;52.34
3968;BME280;9221;42.646;23.380;2023-03-13T00:21:22;94741.09;;;4.43;52.32
3968;BME280;9221;42.646;23.380;2023-03-13T00:23:50;94733.16;;;4.44;52.23
3968;BME280;9221;42.646;23.380;2023-03-13T00:26:18;94769.53;;;4.34;52.21
3968;BME280;9221;42.646;23.380;2023-03-13T00:28:44;94755.25;;;4.27;52.73
3968;BME280;9221;42.646;23.380;2023-03-13T00:31:13;94750.53;;;4.32;52.69
3968;BME280;9221;42.646;23.380;2023-03-13T00:33:41;94688.19;;;4.03;52.52
3968;BME280;9221;42.646;23.380;2023-03-13T00:36:09;94690.69;;;4.05;52.40
3968;BME280;9221;42.646;23.380;2023-03-13T00:38:34;94736.53;;;4.33;52.00
3968;BME280;9221;42.646;23.380;2023-03-13T00:41:07;94783.72;;;4.30;52.57
3968;BME280;9221;42.646;23.380;2023-03-13T00:43:33;94735.19;;;4.28;52.08
3968;BME280;9221;42.646;23.380;2023-03-13T00:45:59;94800.84;;;4.34;51.97
3968;BME280;9221;42.646;23.380;2023-03-13T00:48:25;94731.22;;;4.22;52.43
3968;BME280;9221;42.646;23.380;2023-03-13T00:50:50;94749.28;;;4.25;52.38
3968;BME280;9221;42.646;23.380;2023-03-13T00:53:16;94749.59;;;4.33;52.29
3968;BME280;9221;42.646;23.380;2023-03-13T00:55:54;94778.00;;;4.25;52.66
3968;BME280;9221;42.646;23.380;2023-03-13T00:58:20;94699.66;;;3.88;52.83
3968;BME280;9221;42.646;23.380;2023-03-13T01:00:46;94717.28;;;4.10;52.68
3968;BME280;9221;42.646;23.380;2023-03-13T01:03:11;94741.38;;;4.27;52.66
3968;BME280;9221;42.646;23.380;2023-03-13T01:05:36;94755.16;;;4.16;52.36
3968;BME280;9221;42.646;23.380;2023-03-13T01:08:02;94682.38;;;3.87;52.40
3968;BME280;9221;42.646;23.380;2023-03-13T01:10:27;94753.03;;;4.21;52.77
3968;BME280;9221;42.646;23.380;2023-03-13T01:12:53;94743.06;;;4.15;52.31
3968;BME280;9221;42.646;23.380;2023-03-13T01:15:18;94690.28;;;3.85;52.64
3968;BME280;9221;42.646;23.380;2023-03-13T01:17:44;94740.38;;;4.03;52.81
3968;BME280;9221;42.646;23.380;2023-03-13T01:20:10;94735.44;;;3.99;53.17
3968;BME280;9221;42.646;23.380;2023-03-13T01:22:36;94783.88;;;4.16;52.76
3968;BME280;9221;42.646;23.380;2023-03-13T01:25:02;94712.16;;;4.09;52.92
3968;BME280;9221;42.646;23.380;2023-03-13T01:27:28;94720.16;;;3.68;53.70
3968;BME280;9221;42.646;23.380;2023-03-13T01:29:55;94730.56;;;3.68;54.13
3968;BME280;9221;42.646;23.380;2023-03-13T01:32:20;94684.91;;;3.24;54.93
3968;BME280;9221;42.646;23.380;2023-03-13T01:34:46;94774.19;;;3.66;55.11
3968;BME280;9221;42.646;23.380;2023-03-13T01:37:11;94796.00;;;3.65;55.42
3968;BME280;9221;42.646;23.380;2023-03-13T01:39:37;94797.00;;;3.50;55.21
3968;BME280;9221;42.646;23.380;2023-03-13T01:42:03;94761.00;;;3.29;57.24
3968;BME280;9221;42.646;23.380;2023-03-13T01:44:49;94741.75;;;2.64;58.01
3968;BME280;9221;42.646;23.380;2023-03-13T01:47:15;94761.84;;;2.62;57.99
3968;BME280;9221;42.646;23.380;2023-03-13T01:49:40;94775.50;;;2.93;57.67
3968;BME280;9221;42.646;23.380;2023-03-13T01:52:09;94756.06;;;2.71;58.77
3968;BME280;9221;42.646;23.380;2023-03-13T01:54:41;94747.34;;;2.58;59.14
3968;BME280;9221;42.646;23.380;2023-03-13T01:57:14;94780.41;;;2.70;59.01
3968;BME280;9221;42.646;23.380;2023-03-13T01:59:54;94759.53;;;2.58;59.58
3968;BME280;9221;42.646;23.380;2023-03-13T02:02:22;94768.78;;;2.49;59.92
3968;BME280;9221;42.646;23.380;2023-03-13T02:04:51;94804.72;;;2.57;59.87
3968;BME280;9221;42.646;23.380;2023-03-13T02:07:24;94799.91;;;2.50;59.92
3968;BME280;9221;42.646;23.380;2023-03-13T02:09:52;94734.97;;;2.20;60.19
3968;BME280;9221;42.646;23.380;2023-03-13T02:12:45;94767.66;;;2.53;60.36
3968;BME280;9221;42.646;23.380;2023-03-13T02:15:14;94664.09;;;1.75;60.69
3968;BME280;9221;42.646;23.380;2023-03-13T02:17:41;94788.47;;;2.53;61.02
3968;BME280;9221;42.646;23.380;2023-03-13T02:20:08;94774.75;;;2.22;60.90
3968;BME280;9221;42.646;23.380;2023-03-13T02:22:55;94787.16;;;2.60;61.21
3968;BME280;9221;42.646;23.380;2023-03-13T02:28:18;94771.81;;;2.56;61.38
3968;BME280;9221;42.646;23.380;2023-03-13T02:30:46;94767.91;;;2.07;61.76
3968;BME280;9221;42.646;23.380;2023-03-13T02:33:14;94781.66;;;2.23;62.34
3968;BME280;9221;42.646;23.380;2023-03-13T02:35:42;94780.72;;;2.10;62.10
3968;BME280;9221;42.646;23.380;2023-03-13T02:38:09;94743.59;;;1.64;62.71
3968;BME280;9221;42.646;23.380;2023-03-13T02:40:40;94809.72;;;1.89;63.36
3968;BME280;9221;42.646;23.380;2023-03-13T02:43:11;94889.16;;;1.64;64.07
3968;BME280;9221;42.646;23.380;2023-03-13T02:45:39;94764.38;;;1.64;64.02
3968;BME280;9221;42.646;23.380;2023-03-13T02:48:05;94785.00;;;1.96;64.27
3968;BME280;9221;42.646;23.380;2023-03-13T02:50:31;94802.63;;;2.20;63.65
3968;BME280;9221;42.646;23.380;2023-03-13T02:53:00;94835.69;;;2.47;63.18
3968;BME280;9221;42.646;23.380;2023-03-13T02:55:31;94842.00;;;2.57;62.54
3968;BME280;9221;42.646;23.380;2023-03-13T02:57:57;94723.50;;;1.95;62.54
3968;BME280;9221;42.646;23.380;2023-03-13T03:00:23;94833.59;;;2.66;62.31
3968;BME280;9221;42.646;23.380;2023-03-13T03:02:52;94851.31;;;2.61;62.44
3968;BME280;9221;42.646;23.380;2023-03-13T03:05:18;94771.81;;;2.14;62.91
3968;BME280;9221;42.646;23.380;2023-03-13T03:07:44;94864.13;;;2.50;62.79
3968;BME280;9221;42.646;23.380;2023-03-13T03:10:10;94845.00;;;2.08;63.07
3968;BME280;9221;42.646;23.380;2023-03-13T03:12:35;94779.06;;;1.65;64.42
3968;BME280;9221;42.646;23.380;2023-03-13T03:15:01;94871.91;;;1.47;65.28
3968;BME280;9221;42.646;23.380;2023-03-13T03:17:28;94833.84;;;1.91;64.49
3968;BME280;9221;42.646;23.380;2023-03-13T03:19:54;94828.63;;;1.91;64.53
3968;BME280;9221;42.646;23.380;2023-03-13T03:22:19;94828.06;;;1.72;64.21
3968;BME280;9221;42.646;23.380;2023-03-13T03:24:45;94849.44;;;1.91;63.91
3968;BME280;9221;42.646;23.380;2023-03-13T03:27:10;94863.19;;;2.08;64.04
3968;BME280;9221;42.646;23.380;2023-03-13T03:29:36;94859.88;;;2.06;63.72
3968;BME280;9221;42.646;23.380;2023-03-13T03:32:01;94662.03;;;0.79;63.62
3968;BME280;9221;42.646;23.380;2023-03-13T03:34:27;94814.34;;;1.69;63.47
3968;BME280;9221;42.646;23.380;2023-03-13T03:36:52;94887.81;;;2.02;63.68
3968;BME280;9221;42.646;23.380;2023-03-13T03:39:17;94823.78;;;1.56;63.74
3968;BME280;9221;42.646;23.380;2023-03-13T03:41:43;94845.44;;;1.41;64.55
3968;BME280;9221;42.646;23.380;2023-03-13T03:44:09;94813.19;;;0.98;65.33
3968;BME280;9221;42.646;23.380;2023-03-13T03:46:34;94831.66;;;0.94;66.02
3968;BME280;9221;42.646;23.380;2023-03-13T03:49:00;94868.47;;;1.16;66.35
3968;BME280;9221;42.646;23.380;2023-03-13T03:51:25;94911.84;;;1.30;66.73
3968;BME280;9221;42.646;23.380;2023-03-13T03:53:50;94901.50;;;1.45;66.90
3968;BME280;9221;42.646;23.380;2023-03-13T03:56:16;94873.81;;;1.29;66.46
3968;BME280;9221;42.646;23.380;2023-03-13T03:58:41;94891.91;;;1.61;65.96
3968;BME280;9221;42.646;23.380;2023-03-13T04:01:07;94886.66;;;1.63;65.70
3968;BME280;9221;42.646;23.380;2023-03-13T04:03:32;94926.06;;;1.55;66.92
3968;BME280;9221;42.646;23.380;2023-03-13T04:05:58;94927.25;;;1.49;66.89
3968;BME280;9221;42.646;23.380;2023-03-13T04:08:24;94962.13;;;1.13;67.15
3968;BME280;9221;42.646;23.380;2023-03-13T04:10:50;94943.16;;;1.43;67.40
3968;BME280;9221;42.646;23.380;2023-03-13T04:13:15;94885.06;;;1.14;66.78
3968;BME280;9221;42.646;23.380;2023-03-13T04:15:41;94858.69;;;0.90;66.46
3968;BME280;9221;42.646;23.380;2023-03-13T04:18:06;94866.66;;;0.71;67.46
3968;BME280;9221;42.646;23.380;2023-03-13T04:20:32;94890.78;;;1.05;67.79
3968;BME280;9221;42.646;23.380;2023-03-13T04:22:58;94938.44;;;1.35;67.67
3968;BME280;9221;42.646;23.380;2023-03-13T04:25:24;94861.38;;;0.88;67.78
3968;BME280;9221;42.646;23.380;2023-03-13T04:27:50;95036.22;;;1.37;67.52
3968;BME280;9221;42.646;23.380;2023-03-13T04:30:15;94916.13;;;1.31;68.14
3968;BME280;9221;42.646;23.380;2023-03-13T04:32:41;94936.09;;;1.61;67.55
3968;BME280;9221;42.646;23.380;2023-03-13T04:35:06;94943.94;;;1.76;66.92
3968;BME280;9221;42.646;23.380;2023-03-13T04:37:32;94970.50;;;1.50;66.62
3968;BME280;9221;42.646;23.380;2023-03-13T04:39:57;94944.03;;;1.44;67.13
3968;BME280;9221;42.646;23.380;2023-03-13T04:42:22;94975.09;;;1.61;67.17
3968;BME280;9221;42.646;23.380;2023-03-13T04:44:48;94930.09;;;1.45;66.78
3968;BME280;9221;42.646;23.380;2023-03-13T04:47:13;94965.03;;;1.71;66.54
3968;BME280;9221;42.646;23.380;2023-03-13T04:49:39;94920.56;;;1.45;66.88
3968;BME280;9221;42.646;23.380;2023-03-13T04:52:04;94919.38;;;1.51;67.93
3968;BME280;9221;42.646;23.380;2023-03-13T04:54:30;94919.69;;;1.45;68.20
3968;BME280;9221;42.646;23.380;2023-03-13T04:56:55;94978.50;;;1.78;68.31
3968;BME280;9221;42.646;23.380;2023-03-13T04:59:20;94991.03;;;2.01;67.60
3968;BME280;9221;42.646;23.380;2023-03-13T05:01:46;95022.72;;;2.08;66.64
3968;BME280;9221;42.646;23.380;2023-03-13T05:04:11;94922.88;;;1.50;66.59
3968;BME280;9221;42.646;23.380;2023-03-13T05:06:37;94943.84;;;1.47;67.45
3968;BME280;9221;42.646;23.380;2023-03-13T05:09:03;94933.44;;;1.47;68.02
3968;BME280;9221;42.646;23.380;2023-03-13T05:11:29;94975.84;;;1.63;67.99
3968;BME280;9221;42.646;23.380;2023-03-13T05:13:54;94994.31;;;1.43;68.99
3968;BME280;9221;42.646;23.380;2023-03-13T05:16:20;94987.63;;;1.39;69.81
3968;BME280;9221;42.646;23.380;2023-03-13T05:18:45;94928.81;;;1.06;70.40
3968;BME280;9221;42.646;23.380;2023-03-13T05:21:11;94880.56;;;0.70;70.26
3968;BME280;9221;42.646;23.380;2023-03-13T05:23:36;94953.25;;;1.17;69.57
3968;BME280;9221;42.646;23.380;2023-03-13T05:26:02;94990.53;;;1.48;69.87
3968;BME280;9221;42.646;23.380;2023-03-13T05:28:27;95026.50;;;1.56;69.12
3968;BME280;9221;42.646;23.380;2023-03-13T05:30:53;95018.59;;;1.74;68.88
3968;BME280;9221;42.646;23.380;2023-03-13T05:33:18;94987.25;;;1.45;68.28
3968;BME280;9221;42.646;23.380;2023-03-13T05:35:45;94980.56;;;1.41;67.35
3968;BME280;9221;42.646;23.380;2023-03-13T05:38:11;94971.09;;;1.40;68.37
3968;BME280;9221;42.646;23.380;2023-03-13T05:40:36;95008.31;;;1.56;67.52
3968;BME280;9221;42.646;23.380;2023-03-13T05:43:02;94959.13;;;1.21;68.06
3968;BME280;9221;42.646;23.380;2023-03-13T05:45:28;95025.22;;;1.63;68.54
3968;BME280;9221;42.646;23.380;2023-03-13T05:47:53;94958.38;;;1.19;68.13
3968;BME280;9221;42.646;23.380;2023-03-13T05:50:19;95034.03;;;1.61;67.38
3968;BME280;9221;42.646;23.380;2023-03-13T05:52:44;94974.53;;;1.24;67.37
3968;BME280;9221;42.646;23.380;2023-03-13T05:55:09;95019.03;;;1.50;67.41
3968;BME280;9221;42.646;23.380;2023-03-13T05:57:35;95026.56;;;1.71;67.91
3968;BME280;9221;42.646;23.380;2023-03-13T06:00:00;95047.44;;;1.85;67.25
3968;BME280;9221;42.646;23.380;2023-03-13T06:02:26;95038.66;;;2.18;66.74
3968;BME280;9221;42.646;23.380;2023-03-13T06:04:52;95044.09;;;2.44;66.12
3968;BME280;9221;42.646;23.380;2023-03-13T06:07:17;95128.31;;;2.73;65.65
3968;BME280;9221;42.646;23.380;2023-03-13T06:09:42;95037.06;;;2.75;64.87
3968;BME280;9221;42.646;23.380;2023-03-13T06:12:10;95075.72;;;2.97;64.05
3968;BME280;9221;42.646;23.380;2023-03-13T06:14:35;95010.13;;;2.61;63.98
3968;BME280;9221;42.646;23.380;2023-03-13T06:17:03;94991.53;;;2.82;63.01
3968;BME280;9221;42.646;23.380;2023-03-13T06:19:29;95033.81;;;3.14;61.75
3968;BME280;9221;42.646;23.380;2023-03-13T06:21:55;95080.84;;;3.27;61.17
3968;BME280;9221;42.646;23.380;2023-03-13T06:24:20;95041.28;;;3.20;61.25
3968;BME280;9221;42.646;23.380;2023-03-13T06:26:49;95074.66;;;3.43;61.22
3968;BME280;9221;42.646;23.380;2023-03-13T06:29:15;94982.19;;;2.92;61.24
3968;BME280;9221;42.646;23.380;2023-03-13T06:31:40;95049.00;;;3.36;61.15
3968;BME280;9221;42.646;23.380;2023-03-13T06:34:07;95071.97;;;3.44;61.17
3968;BME280;9221;42.646;23.380;2023-03-13T06:36:34;95056.59;;;3.54;60.25
3968;BME280;9221;42.646;23.380;2023-03-13T06:39:00;95020.13;;;3.39;59.88
3968;BME280;9221;42.646;23.380;2023-03-13T06:41:25;94994.44;;;3.33;59.66
3968;BME280;9221;42.646;23.380;2023-03-13T06:43:51;95022.66;;;3.68;59.30
3968;BME280;9221;42.646;23.380;2023-03-13T06:46:22;95011.31;;;3.55;58.54
3968;BME280;9221;42.646;23.380;2023-03-13T06:48:49;94998.75;;;3.20;59.36
3968;BME280;9221;42.646;23.380;2023-03-13T06:51:17;95024.00;;;3.47;60.13
3968;BME280;9221;42.646;23.380;2023-03-13T06:53:43;95115.78;;;3.81;59.58
3968;BME280;9221;42.646;23.380;2023-03-13T06:56:09;94978.88;;;3.73;58.80
3968;BME280;9221;42.646;23.380;2023-03-13T06:58:35;94978.06;;;3.86;57.97
3968;BME280;9221;42.646;23.380;2023-03-13T07:01:13;94989.63;;;4.22;57.41
3968;BME280;9221;42.646;23.380;2023-03-13T07:03:39;95062.19;;;4.57;56.68
3968;BME280;9221;42.646;23.380;2023-03-13T07:06:06;94955.84;;;4.33;56.39
3968;BME280;9221;42.646;23.380;2023-03-13T07:08:33;95023.63;;;4.86;55.36
3968;BME280;9221;42.646;23.380;2023-03-13T07:11:03;95054.78;;;5.15;54.61
3968;BME280;9221;42.646;23.380;2023-03-13T07:13:30;95018.94;;;5.17;53.96
3968;BME280;9221;42.646;23.380;2023-03-13T07:15:58;94983.19;;;5.05;55.06
3968;BME280;9221;42.646;23.380;2023-03-13T07:18:24;95011.97;;;5.42;54.54
3968;BME280;9221;42.646;23.380;2023-03-13T07:20:56;95091.03;;;5.71;53.54
3968;BME280;9221;42.646;23.380;2023-03-13T07:23:23;94964.41;;;5.61;51.97
3968;BME280;9221;42.646;23.380;2023-03-13T07:25:56;95017.94;;;6.05;52.81
3968;BME280;9221;42.646;23.380;2023-03-13T07:28:22;95010.97;;;5.93;52.29
3968;BME280;9221;42.646;23.380;2023-03-13T07:30:48;94987.75;;;5.88;53.86
3968;BME280;9221;42.646;23.380;2023-03-13T07:33:14;95051.44;;;6.37;54.29
3968;BME280;9221;42.646;23.380;2023-03-13T07:35:39;95027.66;;;6.52;54.49
3968;BME280;9221;42.646;23.380;2023-03-13T07:38:05;94950.91;;;6.27;53.95
3968;BME280;9221;42.646;23.380;2023-03-13T07:40:31;95032.53;;;7.03;53.68
3968;BME280;9221;42.646;23.380;2023-03-13T07:42:56;95024.44;;;7.40;52.83
3968;BME280;9221;42.646;23.380;2023-03-13T07:45:21;95017.94;;;7.78;51.93
3968;BME280;9221;42.646;23.380;2023-03-13T07:47:47;95035.00;;;7.95;49.41
3968;BME280;9221;42.646;23.380;2023-03-13T07:50:12;94878.06;;;7.11;49.09
3968;BME280;9221;42.646;23.380;2023-03-13T07:52:37;95010.50;;;7.95;49.12
3968;BME280;9221;42.646;23.380;2023-03-13T07:55:03;94980.72;;;7.73;49.13
3968;BME280;9221;42.646;23.380;2023-03-13T07:57:29;94971.66;;;8.10;48.45
3968;BME280;9221;42.646;23.380;2023-03-13T07:59:55;95010.19;;;8.42;48.60
3968;BME280;9221;42.646;23.380;2023-03-13T08:02:20;94961.69;;;8.25;48.65
3968;BME280;9221;42.646;23.380;2023-03-13T08:04:45;94998.28;;;8.49;48.70
3968;BME280;9221;42.646;23.380;2023-03-13T08:07:11;94945.00;;;8.14;48.08
3968;BME280;9221;42.646;23.380;2023-03-13T08:09:37;95034.25;;;8.70;48.51
3968;BME280;9221;42.646;23.380;2023-03-13T08:12:03;94942.88;;;8.62;47.35
3968;BME280;9221;42.646;23.380;2023-03-13T08:14:28;94998.50;;;9.09;46.67
3968;BME280;9221;42.646;23.380;2023-03-13T08:16:54;94932.66;;;8.69;45.65
3968;BME280;9221;42.646;23.380;2023-03-13T08:19:19;94952.44;;;9.25;45.11
3968;BME280;9221;42.646;23.380;2023-03-13T08:21:44;94958.34;;;9.58;44.50
3968;BME280;9221;42.646;23.380;2023-03-13T08:24:11;94985.81;;;10.35;43.69
3968;BME280;9221;42.646;23.380;2023-03-13T08:26:39;94997.66;;;10.98;42.03
3968;BME280;9221;42.646;23.380;2023-03-13T08:29:08;94988.78;;;10.99;41.82
3968;BME280;9221;42.646;23.380;2023-03-13T08:31:38;95018.72;;;11.17;41.64
3968;BME280;9221;42.646;23.380;2023-03-13T08:34:06;94982.63;;;11.08;41.66
3968;BME280;9221;42.646;23.380;2023-03-13T08:36:35;95030.88;;;11.38;41.48
3968;BME280;9221;42.646;23.380;2023-03-13T08:39:05;95006.84;;;11.69;39.99
3968;BME280;9221;42.646;23.380;2023-03-13T08:41:35;95027.28;;;11.67;39.31
3968;BME280;9221;42.646;23.380;2023-03-13T08:44:02;95001.78;;;11.58;39.29
3968;BME280;9221;42.646;23.380;2023-03-13T08:46:29;94962.13;;;11.30;39.91
3968;BME280;9221;42.646;23.380;2023-03-13T08:48:55;94996.19;;;11.89;38.92
3968;BME280;9221;42.646;23.380;2023-03-13T08:51:25;94907.44;;;11.12;39.42
3968;BME280;9221;42.646;23.380;2023-03-13T08:53:52;95018.84;;;12.55;38.64
3968;BME280;9221;42.646;23.380;2023-03-13T08:56:20;94945.34;;;12.67;37.36
3968;BME280;9221;42.646;23.380;2023-03-13T08:58:53;94981.03;;;12.63;37.33
3968;BME280;9221;42.646;23.380;2023-03-13T09:01:21;94998.28;;;13.11;36.99
3968;BME280;9221;42.646;23.380;2023-03-13T09:03:47;94946.91;;;12.96;37.35
3968;BME280;9221;42.646;23.380;2023-03-13T09:06:12;95000.84;;;13.56;36.12
3968;BME280;9221;42.646;23.380;2023-03-13T09:08:38;94974.75;;;13.08;36.53
3968;BME280;9221;42.646;23.380;2023-03-13T09:11:06;95057.88;;;13.15;36.44
3968;BME280;9221;42.646;23.380;2023-03-13T09:13:35;94931.09;;;13.98;35.11
3968;BME280;9221;42.646;23.380;2023-03-13T09:16:06;94980.63;;;14.65;33.69
3968;BME280;9221;42.646;23.380;2023-03-13T09:18:32;94993.44;;;14.10;35.46
3968;BME280;9221;42.646;23.380;2023-03-13T09:20:58;94967.88;;;14.01;35.73
3968;BME280;9221;42.646;23.380;2023-03-13T09:23:24;94959.59;;;13.96;35.11
3968;BME280;9221;42.646;23.380;2023-03-13T09:25:54;94967.22;;;13.99;34.90
3968;BME280;9221;42.646;23.380;2023-03-13T09:28:20;94979.59;;;14.58;35.47
3968;BME280;9221;42.646;23.380;2023-03-13T09:30:46;94968.00;;;14.59;34.77
3968;BME280;9221;42.646;23.380;2023-03-13T09:33:14;94928.47;;;14.55;34.38
3968;BME280;9221;42.646;23.380;2023-03-13T09:35:39;94931.03;;;14.74;33.54
3968;BME280;9221;42.646;23.380;2023-03-13T09:38:05;94916.56;;;14.68;34.36
3968;BME280;9221;42.646;23.380;2023-03-13T09:40:40;94932.16;;;14.96;33.52
3968;BME280;9221;42.646;23.380;2023-03-13T09:43:24;94993.38;;;15.75;32.80
3968;BME280;9221;42.646;23.380;2023-03-13T09:45:53;94966.59;;;15.85;32.19
3968;BME280;9221;42.646;23.380;2023-03-13T09:53:35;94981.94;;;16.37;32.01
3968;BME280;9221;42.646;23.380;2023-03-13T09:56:04;94971.06;;;16.24;31.85
3968;BME280;9221;42.646;23.380;2023-03-13T09:58:33;94966.59;;;16.16;30.83
3968;BME280;9221;42.646;23.380;2023-03-13T10:01:03;94967.28;;;16.10;31.16
3968;BME280;9221;42.646;23.380;2023-03-13T10:06:01;94942.88;;;15.67;31.21
3968;BME280;9221;42.646;23.380;2023-03-13T10:08:33;94999.00;;;15.88;32.00
3968;BME280;9221;42.646;23.380;2023-03-13T10:14:01;94927.84;;;15.90;31.57
3968;BME280;9221;42.646;23.380;2023-03-13T10:16:33;94961.78;;;16.43;30.78
3968;BME280;9221;42.646;23.380;2023-03-13T10:19:11;94949.84;;;16.77;30.04
3968;BME280;9221;42.646;23.380;2023-03-13T10:21:39;94937.72;;;17.13;30.22
3968;BME280;9221;42.646;23.380;2023-03-13T10:26:43;94958.81;;;17.52;29.15
3968;BME280;9221;42.646;23.380;2023-03-13T10:29:24;94957.53;;;17.18;29.47
3968;BME280;9221;42.646;23.380;2023-03-13T10:34:21;94907.78;;;18.07;29.02
3968;BME280;9221;42.646;23.380;2023-03-13T10:36:48;94912.00;;;18.38;28.36
3968;BME280;9221;42.646;23.380;2023-03-13T10:39:20;94861.34;;;18.23;27.98
3968;BME280;9221;42.646;23.380;2023-03-13T10:41:47;94944.81;;;18.53;28.81
3968;BME280;9221;42.646;23.380;2023-03-13T10:44:21;94918.09;;;18.53;27.79
3968;BME280;9221;42.646;23.380;2023-03-13T10:46:48;94882.06;;;18.21;28.30
3968;BME280;9221;42.646;23.380;2023-03-13T10:49:22;94846.53;;;17.99;27.88
3968;BME280;9221;42.646;23.380;2023-03-13T10:52:02;94899.19;;;18.48;28.17
3968;BME280;9221;42.646;23.380;2023-03-13T10:54:30;94887.22;;;18.72;27.63
3968;BME280;9221;42.646;23.380;2023-03-13T10:59:46;94915.88;;;17.47;28.93
3968;BME280;9221;42.646;23.380;2023-03-13T11:02:36;94884.94;;;17.83;28.67
3968;BME280;9221;42.646;23.380;2023-03-13T11:07:48;94914.16;;;17.91;28.31
3968;BME280;9221;42.646;23.380;2023-03-13T11:10:18;94873.28;;;18.49;28.00
3968;BME280;9221;42.646;23.380;2023-03-13T11:13:02;94821.03;;;18.39;27.63
3968;BME280;9221;42.646;23.380;2023-03-13T11:15:40;94857.72;;;19.09;27.09
3968;BME280;9221;42.646;23.380;2023-03-13T11:18:18;94855.91;;;18.59;27.91
3968;BME280;9221;42.646;23.380;2023-03-13T11:20:48;94854.16;;;18.02;28.45
3968;BME280;9221;42.646;23.380;2023-03-13T11:31:17;94839.56;;;17.46;28.71
3968;BME280;9221;42.646;23.380;2023-03-13T11:33:50;94888.31;;;17.91;29.09
3968;BME280;9221;42.646;23.380;2023-03-13T11:36:37;94840.50;;;18.12;29.03
3968;BME280;9221;42.646;23.380;2023-03-13T11:39:30;94846.34;;;17.64;28.82
3968;BME280;9221;42.646;23.380;2023-03-13T11:42:07;94833.13;;;17.55;29.48
3968;BME280;9221;42.646;23.380;2023-03-13T11:44:47;94846.66;;;18.12;28.43
3968;BME280;9221;42.646;23.380;2023-03-13T11:52:45;94751.16;;;17.28;29.31
3968;BME280;9221;42.646;23.380;2023-03-13T11:55:42;94796.16;;;17.74;29.54
3968;BME280;9221;42.646;23.380;2023-03-13T12:01:22;94780.66;;;18.84;27.29
3968;BME280;9221;42.646;23.380;2023-03-13T12:04:03;94805.88;;;19.03;27.12
3968;BME280;9221;42.646;23.380;2023-03-13T12:06:33;94788.31;;;19.29;27.07
3968;BME280;9221;42.646;23.380;2023-03-13T12:14:56;94756.59;;;20.08;26.13
3968;BME280;9221;42.646;23.380;2023-03-13T12:17:32;94773.50;;;19.26;25.94
3968;BME280;9221;42.646;23.380;2023-03-13T12:22:56;94756.56;;;17.92;28.43
3968;BME280;9221;42.646;23.380;2023-03-13T12:25:27;94740.56;;;18.49;27.66
3968;BME280;9221;42.646;23.380;2023-03-13T12:28:20;94770.19;;;19.24;26.73
3968;BME280;9221;42.646;23.380;2023-03-13T12:30:59;94739.84;;;19.52;26.20
3968;BME280;9221;42.646;23.380;2023-03-13T12:33:39;94757.34;;;19.61;26.24
3968;BME280;9221;42.646;23.380;2023-03-13T12:36:16;94751.41;;;19.73;26.06
3968;BME280;9221;42.646;23.380;2023-03-13T12:41:41;94707.22;;;19.08;26.31
3968;BME280;9221;42.646;23.380;2023-03-13T12:44:11;94748.44;;;19.41;25.94
3968;BME280;9221;42.646;23.380;2023-03-13T12:46:45;94745.00;;;19.05;26.42
3968;BME280;9221;42.646;23.380;2023-03-13T12:59:58;94689.88;;;16.76;28.16
3968;BME280;9221;42.646;23.380;2023-03-13T13:02:30;94694.47;;;16.07;29.95
3968;BME280;9221;42.646;23.380;2023-03-13T13:04:58;94692.59;;;15.70;30.68
3968;BME280;9221;42.646;23.380;2023-03-13T13:07:33;94698.66;;;15.17;31.03
3968;BME280;9221;42.646;23.380;2023-03-13T13:12:25;94703.59;;;14.97;31.85
3968;BME280;9221;42.646;23.380;2023-03-13T13:19:52;94771.25;;;14.70;32.30
3968;BME280;9221;42.646;23.380;2023-03-13T13:25:26;94751.75;;;14.30;33.12
3968;BME280;9221;42.646;23.380;2023-03-13T13:27:51;94682.72;;;13.74;33.38
3968;BME280;9221;42.646;23.380;2023-03-13T13:32:48;94747.50;;;13.96;33.66
3968;BME280;9221;42.646;23.380;2023-03-13T13:35:20;94689.84;;;13.73;33.84
3968;BME280;9221;42.646;23.380;2023-03-13T13:37:47;94669.31;;;13.83;33.84
3968;BME280;9221;42.646;23.380;2023-03-13T13:40:20;94733.53;;;14.10;33.85
3968;BME280;9221;42.646;23.380;2023-03-13T13:47:46;94757.25;;;13.79;34.02
3968;BME280;9221;42.646;23.380;2023-03-13T13:50:20;94646.16;;;13.36;34.31
3968;BME280;9221;42.646;23.380;2023-03-13T13:52:48;94670.63;;;13.38;34.88
3968;BME280;9221;42.646;23.380;2023-03-13T13:55:29;94760.25;;;13.67;35.00
3968;BME280;9221;42.646;23.380;2023-03-13T13:58:02;94758.25;;;13.78;34.86
3968;BME280;9221;42.646;23.380;2023-03-13T14:00:44;94718.66;;;13.68;34.87
3968;BME280;9221;42.646;23.380;2023-03-13T14:03:18;94721.66;;;13.65;35.02
3968;BME280;9221;42.646;23.380;2023-03-13T14:05:46;94716.03;;;13.60;35.25
3968;BME280;9221;42.646;23.380;2023-03-13T14:10:43;94723.72;;;13.12;35.36
3968;BME280;9221;42.646;23.380;2023-03-13T14:13:19;94721.44;;;13.33;35.08
3968;BME280;9221;42.646;23.380;2023-03-13T14:15:48;94690.78;;;13.14;35.48
3968;BME280;9221;42.646;23.380;2023-03-13T14:18:24;94730.25;;;13.50;35.66
3968;BME280;9221;42.646;23.380;2023-03-13T14:21:04;94729.59;;;13.57;35.43
3968;BME280;9221;42.646;23.380;2023-03-13T14:23:45;94718.34;;;13.54;35.45
3968;BME280;9221;42.646;23.380;2023-03-13T14:26:31;94708.41;;;13.48;35.05
3968;BME280;9221;42.646;23.380;2023-03-13T14:28:59;94709.72;;;13.44;35.67
3968;BME280;9221;42.646;23.380;2023-03-13T14:33:58;94691.66;;;13.31;35.20
3968;BME280;9221;42.646;23.380;2023-03-13T14:36:25;94716.59;;;13.04;34.88
3968;BME280;9221;42.646;23.380;2023-03-13T14:38:56;94719.00;;;13.48;34.90
3968;BME280;9221;42.646;23.380;2023-03-13T14:41:43;94713.06;;;13.54;35.06
3968;BME280;9221;42.646;23.380;2023-03-13T14:44:24;94677.22;;;13.17;34.77
3968;BME280;9221;42.646;23.380;2023-03-13T14:46:54;94695.50;;;13.45;34.69
3968;BME280;9221;42.646;23.380;2023-03-13T14:49:24;94715.72;;;13.63;34.81
3968;BME280;9221;42.646;23.380;2023-03-13T14:51:57;94705.41;;;13.60;34.83